Time;durP1;ratioP1;P1;durP2;ratioP2;P2;SDS_P1;SDS_P2;PMS_P1;PMS_P2;Temp;Humidity;BMP_temperature;BMP_pressure;BME280_temperature;BME280_humidity;BME280_pressure;Samples;Min_cycle;Max_cycle;Signal;HPM_P1;HPM_P2
2022/10/19 00:01:42;;;;;;;12.68;5.38;;;12.20;99.90;;;;;;5054015;28;20045;-65
2022/10/19 00:04:09;;;;;;;19.55;6.75;;;12.20;99.90;;;;;;5036197;28;20045;-65
2022/10/19 00:06:36;;;;;;;14.00;6.00;;;12.20;99.90;;;;;;5052719;28;20037;-65
2022/10/19 00:09:11;;;;;;;9.68;5.88;;;12.20;99.90;;;;;;5085797;28;20045;-65
2022/10/19 00:11:40;;;;;;;16.92;6.18;;;12.20;99.90;;;;;;5052214;28;20479;-65
2022/10/19 00:14:07;;;;;;;15.38;6.13;;;12.20;99.90;;;;;;5052476;28;20052;-65
2022/10/19 00:16:35;;;;;;;12.98;5.45;;;12.20;99.90;;;;;;5052395;28;20044;-65
2022/10/19 00:19:04;;;;;;;15.23;6.72;;;12.20;99.90;;;;;;5053276;28;20473;-65
2022/10/19 00:21:33;;;;;;;13.33;5.83;;;12.10;99.90;;;;;;5035552;28;20480;-65
2022/10/19 00:24:00;;;;;;;15.85;7.03;;;12.10;99.90;;;;;;5036206;28;20298;-65
2022/10/19 00:26:27;;;;;;;13.82;5.15;;;12.20;99.90;;;;;;5051898;28;20049;-65
2022/10/19 00:28:54;;;;;;;14.30;5.63;;;12.10;99.90;;;;;;5054081;28;20044;-65
2022/10/19 00:31:21;;;;;;;20.83;5.90;;;12.10;99.90;;;;;;5052198;28;20037;-64
2022/10/19 00:33:48;;;;;;;16.27;4.63;;;12.10;99.90;;;;;;5051663;28;20481;-64
2022/10/19 00:36:41;;;;;;;16.10;6.95;;;12.20;99.90;;;;;;5051685;28;20503;-64
2022/10/19 00:39:10;;;;;;;16.05;5.10;;;12.10;99.90;;;;;;5050986;28;20079;-64
2022/10/19 00:41:37;;;;;;;16.80;5.38;;;12.10;99.90;;;;;;5035404;28;20045;-64
2022/10/19 00:44:06;;;;;;;15.18;5.68;;;12.10;99.90;;;;;;5051947;28;20126;-65
2022/10/19 00:46:35;;;;;;;9.95;3.78;;;12.10;99.90;;;;;;5052789;28;20110;-65
2022/10/19 00:49:16;;;;;;;15.27;5.30;;;12.10;99.90;;;;;;5051931;28;20079;-65
2022/10/19 00:51:45;;;;;;;16.63;6.82;;;12.10;99.90;;;;;;5052417;28;20084;-65
2022/10/19 00:54:12;;;;;;;19.88;6.22;;;12.10;99.90;;;;;;5035527;28;20056;-64
2022/10/19 00:56:41;;;;;;;21.30;7.72;;;12.10;99.90;;;;;;5035160;28;20045;-65
2022/10/19 00:59:08;;;;;;;21.60;7.87;;;12.10;99.90;;;;;;5051467;28;20041;-65
2022/10/19 01:01:35;;;;;;;12.73;5.30;;;12.10;99.90;;;;;;5051617;28;20286;-64
2022/10/19 01:04:02;;;;;;;12.15;4.85;;;12.10;99.90;;;;;;5051990;28;20057;-64
2022/10/19 01:06:29;;;;;;;17.75;4.45;;;12.10;99.90;;;;;;5051590;28;20052;-64
2022/10/19 01:08:56;;;;;;;11.15;3.13;;;12.10;99.90;;;;;;5051355;28;20052;-64
2022/10/19 01:11:29;;;;;;;16.20;3.60;;;12.10;99.90;;;;;;5051383;28;20099;-65
2022/10/19 01:14:26;;;;;;;9.73;2.63;;;12.10;99.90;;;;;;5051279;28;20049;-64
2022/10/19 01:17:06;;;;;;;11.98;2.88;;;12.10;99.90;;;;;;5051993;28;20107;-64
2022/10/19 01:19:55;;;;;;;6.10;2.40;;;12.10;99.90;;;;;;5035174;28;20049;-65
2022/10/19 01:22:32;;;;;;;10.52;2.63;;;12.10;99.90;;;;;;5053511;28;20045;-65
2022/10/19 01:25:37;;;;;;;9.45;2.88;;;12.10;99.90;;;;;;5052283;28;20086;-64
2022/10/19 01:28:30;;;;;;;9.98;2.63;;;12.10;99.90;;;;;;5039947;28;20056;-64
2022/10/19 01:31:16;;;;;;;10.32;3.53;;;12.20;99.90;;;;;;5051536;28;20060;-64
2022/10/19 01:34:16;;;;;;;14.15;3.70;;;12.10;99.90;;;;;;5051953;28;20310;-64
2022/10/19 01:36:59;;;;;;;11.88;2.58;;;12.10;99.90;;;;;;5051178;28;20080;-64
2022/10/19 01:39:48;;;;;;;13.93;3.25;;;12.10;99.90;;;;;;5052122;28;20045;-65
2022/10/19 01:42:27;;;;;;;8.02;3.53;;;12.10;99.90;;;;;;5052902;28;20044;-65
2022/10/19 01:45:18;;;;;;;12.70;3.45;;;12.10;99.90;;;;;;5051992;28;20107;-64
2022/10/19 01:47:52;;;;;;;11.32;4.75;;;12.10;99.90;;;;;;5034371;28;20053;-64
2022/10/19 01:50:40;;;;;;;15.05;5.05;;;12.10;99.90;;;;;;5034362;28;20045;-64
2022/10/19 01:53:07;;;;;;;14.50;5.65;;;12.10;99.90;;;;;;5052988;28;20045;-64
2022/10/19 01:55:35;;;;;;;14.70;5.72;;;12.10;99.90;;;;;;5050803;28;20053;-64
2022/10/19 01:58:04;;;;;;;11.70;5.40;;;12.20;99.90;;;;;;5050855;28;20037;-64
2022/10/19 02:00:36;;;;;;;14.18;6.63;;;12.10;99.90;;;;;;5051792;28;20037;-65
2022/10/19 02:03:03;;;;;;;15.95;5.32;;;12.20;99.90;;;;;;5051665;28;20067;-65
2022/10/19 02:05:31;;;;;;;11.82;5.05;;;12.10;99.90;;;;;;5052819;28;20079;-64
2022/10/19 02:08:02;;;;;;;14.70;5.70;;;12.20;99.90;;;;;;5034249;28;20045;-64
2022/10/19 02:10:30;;;;;;;13.75;4.80;;;12.20;99.90;;;;;;5051441;28;20053;-65
2022/10/19 02:12:57;;;;;;;11.43;4.72;;;12.20;99.90;;;;;;5051850;28;20126;-64
2022/10/19 02:15:24;;;;;;;12.02;3.70;;;12.20;99.90;;;;;;5052628;28;20124;-65
2022/10/19 02:17:54;;;;;;;11.30;4.68;;;12.20;99.90;;;;;;5054695;28;20079;-65
2022/10/19 02:20:20;;;;;;;12.00;4.13;;;12.20;99.90;;;;;;5054390;28;20174;-65
2022/10/19 02:22:47;;;;;;;15.10;4.45;;;12.20;99.90;;;;;;5037925;28;20473;-64
2022/10/19 02:25:14;;;;;;;13.80;3.85;;;12.20;99.90;;;;;;5037995;28;20049;-64
2022/10/19 02:27:41;;;;;;;13.85;3.63;;;12.20;99.90;;;;;;5055314;28;20049;-64
2022/10/19 02:30:13;;;;;;;14.68;3.58;;;12.20;99.90;;;;;;5054270;28;20075;-64
2022/10/19 02:32:40;;;;;;;11.82;3.33;;;12.20;99.90;;;;;;5038469;28;20053;-64
2022/10/19 02:35:07;;;;;;;12.57;4.05;;;12.30;99.90;;;;;;5054665;28;20044;-64
2022/10/19 02:37:34;;;;;;;11.90;4.28;;;12.30;99.90;;;;;;5054003;28;20045;-64
2022/10/19 02:40:02;;;;;;;11.35;3.80;;;12.30;99.90;;;;;;5054537;28;20045;-65
2022/10/19 02:42:57;;;;;;;10.65;4.47;;;12.30;99.90;;;;;;5037483;28;20107;-64
2022/10/19 02:45:31;;;;;;;12.18;6.72;;;12.30;99.90;;;;;;5053777;28;20510;-64
2022/10/19 02:48:21;;;;;;;14.40;6.13;;;12.30;99.90;;;;;;5054832;28;20041;-64
2022/10/19 02:50:48;;;;;;;;;;;12.30;99.90;;;;;;5055664;28;20048;-64
2022/10/19 02:53:15;;;;;;;16.80;5.82;;;12.30;99.90;;;;;;5088048;28;19986;-64
2022/10/19 02:55:42;;;;;;;18.30;7.20;;;12.30;99.90;;;;;;5053707;28;20045;-64
2022/10/19 02:58:09;;;;;;;13.07;5.63;;;12.30;99.90;;;;;;5053774;28;20041;-64
2022/10/19 03:00:36;;;;;;;12.75;5.70;;;12.30;99.90;;;;;;5053692;28;20107;-64
2022/10/19 03:03:03;;;;;;;12.73;4.20;;;12.30;99.90;;;;;;5053772;28;20037;-64
2022/10/19 03:05:29;;;;;;;22.50;6.10;;;12.30;99.90;;;;;;5054119;28;20081;-64
2022/10/19 03:07:56;;;;;;;11.95;4.45;;;12.30;99.90;;;;;;5054699;28;20041;-64
2022/10/19 03:10:23;;;;;;;18.55;5.43;;;12.30;99.90;;;;;;5054482;28;20057;-64
2022/10/19 03:12:50;;;;;;;16.55;5.43;;;12.30;99.90;;;;;;5054432;28;20087;-64
2022/10/19 03:15:17;;;;;;;13.77;5.55;;;12.30;99.90;;;;;;5054148;28;20378;-64
2022/10/19 03:17:44;;;;;;;13.98;4.95;;;12.30;99.90;;;;;;5053833;28;20102;-63
2022/10/19 03:20:11;;;;;;;16.02;5.63;;;12.30;99.90;;;;;;5055246;28;20416;-64
2022/10/19 03:22:38;;;;;;;19.85;7.07;;;12.40;99.90;;;;;;5054968;28;20384;-65
2022/10/19 03:25:05;;;;;;;26.58;7.82;;;12.40;99.90;;;;;;5054850;28;20041;-64
2022/10/19 03:27:32;;;;;;;17.25;7.38;;;12.40;99.90;;;;;;5052383;28;20049;-64
2022/10/19 03:29:59;;;;;;;23.40;8.90;;;12.40;99.90;;;;;;5053621;28;20354;-64
2022/10/19 03:32:26;;;;;;;22.83;9.95;;;12.40;99.90;;;;;;5053916;28;20115;-64
2022/10/19 03:34:53;;;;;;;23.30;9.57;;;12.40;99.90;;;;;;5054897;28;20143;-64
2022/10/19 03:37:19;;;;;;;23.85;9.00;;;12.40;99.90;;;;;;5053286;28;20041;-64
2022/10/19 03:39:46;;;;;;;16.20;8.10;;;12.40;99.90;;;;;;5054963;28;20048;-64
2022/10/19 03:42:13;;;;;;;16.38;7.43;;;12.40;99.90;;;;;;5052611;28;20469;-64
2022/10/19 03:44:40;;;;;;;15.43;7.05;;;12.40;99.90;;;;;;5053781;28;20041;-64
2022/10/19 03:47:07;;;;;;;14.98;5.55;;;12.40;99.90;;;;;;5053057;28;20041;-64
2022/10/19 03:49:33;;;;;;;15.57;6.03;;;12.40;99.90;;;;;;5052881;28;20041;-65
2022/10/19 03:52:05;;;;;;;14.40;4.63;;;12.40;99.90;;;;;;5036780;28;20172;-65
2022/10/19 03:54:32;;;;;;;23.58;4.78;;;12.40;99.90;;;;;;5052632;28;20049;-65
2022/10/19 03:56:59;;;;;;;9.23;3.35;;;12.40;99.90;;;;;;5053990;28;20037;-65
2022/10/19 03:59:26;;;;;;;14.95;3.47;;;12.40;99.90;;;;;;5052575;28;20067;-65
2022/10/19 04:01:53;;;;;;;10.43;3.50;;;12.40;99.90;;;;;;5053501;28;20160;-65
2022/10/19 04:04:20;;;;;;;17.60;3.60;;;12.40;99.90;;;;;;5053620;28;20071;-65
2022/10/19 04:06:47;;;;;;;14.60;3.97;;;12.40;99.90;;;;;;5053991;28;20540;-65
2022/10/19 04:09:16;;;;;;;10.82;3.55;;;12.40;99.90;;;;;;5052682;28;20112;-65
2022/10/19 04:11:43;;;;;;;13.37;3.53;;;12.40;99.90;;;;;;5036229;28;20056;-66
2022/10/19 04:14:14;;;;;;;14.07;2.70;;;12.40;99.90;;;;;;5053350;28;20090;-65
2022/10/19 04:16:59;;;;;;;13.32;3.03;;;12.40;99.90;;;;;;5052837;28;20056;-65
2022/10/19 04:19:25;;;;;;;19.95;5.25;;;12.40;99.90;;;;;;5053479;28;20103;-65
2022/10/19 04:21:52;;;;;;;8.88;3.17;;;12.40;99.90;;;;;;5051792;28;20041;-65
2022/10/19 04:24:19;;;;;;;11.35;3.53;;;12.40;99.90;;;;;;5052025;28;20056;-64
2022/10/19 04:26:48;;;;;;;15.73;3.60;;;12.40;99.90;;;;;;5052488;28;20059;-64
2022/10/19 04:29:16;;;;;;;18.33;4.32;;;12.50;99.90;;;;;;5051978;28;20037;-64
2022/10/19 04:31:43;;;;;;;14.70;2.90;;;12.50;99.90;;;;;;5053396;28;20044;-64
2022/10/19 04:34:10;;;;;;;14.45;3.80;;;12.50;99.90;;;;;;5051845;28;20103;-64
2022/10/19 04:36:37;;;;;;;14.68;4.05;;;12.50;99.90;;;;;;5051794;28;20155;-64
2022/10/19 04:39:04;;;;;;;15.13;3.80;;;12.40;99.90;;;;;;5050880;28;20071;-65
2022/10/19 04:41:32;;;;;;;14.27;3.60;;;12.50;99.90;;;;;;5051497;28;20095;-64
2022/10/19 04:44:00;;;;;;;13.75;3.95;;;12.40;99.90;;;;;;5052519;28;20138;-64
2022/10/19 04:46:27;;;;;;;16.48;4.15;;;12.40;99.90;;;;;;5051642;28;20045;-64
2022/10/19 04:48:54;;;;;;;13.93;4.10;;;12.40;99.90;;;;;;5051707;28;20044;-64
2022/10/19 04:51:21;;;;;;;12.30;3.97;;;12.40;99.90;;;;;;5052011;28;20048;-64
2022/10/19 04:53:49;;;;;;;14.80;3.83;;;12.40;99.90;;;;;;5051994;28;20041;-64
2022/10/19 04:56:22;;;;;;;15.13;4.32;;;12.40;99.90;;;;;;5051626;28;20087;-64
2022/10/19 04:58:49;;;;;;;21.95;4.03;;;12.40;99.90;;;;;;5051917;28;20052;-64
2022/10/19 05:01:18;;;;;;;16.13;3.65;;;12.40;99.90;;;;;;5051877;28;20106;-64
2022/10/19 05:03:45;;;;;;;21.30;4.72;;;12.50;99.90;;;;;;5052779;28;20041;-64
2022/10/19 05:06:12;;;;;;;13.05;3.83;;;12.50;99.90;;;;;;5053428;28;20461;-64
2022/10/19 05:08:39;;;;;;;18.00;4.70;;;12.50;99.90;;;;;;5053340;28;20053;-64
2022/10/19 05:11:11;;;;;;;19.20;4.80;;;12.50;99.90;;;;;;5053169;28;20479;-64
2022/10/19 05:13:38;;;;;;;17.88;4.43;;;12.50;99.90;;;;;;5035988;28;20151;-64
2022/10/19 05:16:05;;;;;;;22.15;6.55;;;12.50;99.90;;;;;;5053259;28;20175;-64
2022/10/19 05:18:33;;;;;;;17.35;4.55;;;12.50;99.90;;;;;;5051410;28;20045;-65
2022/10/19 05:21:10;;;;;;;19.73;4.35;;;12.50;99.90;;;;;;5052377;28;20319;-64
2022/10/19 05:23:37;;;;;;;23.85;5.50;;;12.50;99.90;;;;;;5051314;28;20384;-65
2022/10/19 05:26:09;;;;;;;17.08;4.50;;;12.50;99.90;;;;;;5051659;28;20045;-64
2022/10/19 05:28:36;;;;;;;22.90;4.43;;;12.50;99.90;;;;;;5051327;28;20373;-64
2022/10/19 05:31:13;;;;;;;19.65;5.82;;;12.50;99.90;;;;;;5052225;28;20463;-64
2022/10/19 05:33:40;;;;;;;18.00;5.20;;;12.50;99.90;;;;;;5051659;28;20111;-64
2022/10/19 05:36:17;;;;;;;12.45;4.18;;;12.40;99.90;;;;;;5052857;28;20446;-64
2022/10/19 05:38:44;;;;;;;13.82;5.93;;;12.50;99.90;;;;;;5051644;28;20060;-64
2022/10/19 05:41:11;;;;;;;23.50;5.10;;;12.50;99.90;;;;;;5051320;28;20527;-64
2022/10/19 05:43:39;;;;;;;15.65;5.13;;;12.40;99.90;;;;;;5050947;28;20044;-64
2022/10/19 05:46:07;;;;;;;18.25;5.50;;;12.40;99.90;;;;;;5050754;28;20485;-64
2022/10/19 05:48:34;;;;;;;15.38;4.95;;;12.40;99.90;;;;;;5051215;28;20045;-64
2022/10/19 05:51:01;;;;;;;20.67;5.80;;;12.40;99.90;;;;;;5053213;28;20098;-64
2022/10/19 05:53:28;;;;;;;20.15;6.20;;;12.40;99.90;;;;;;5054975;28;20044;-64
2022/10/19 05:55:55;;;;;;;20.55;7.47;;;12.40;99.90;;;;;;5056702;28;20376;-64
2022/10/19 05:58:22;;;;;;;17.23;5.45;;;12.40;99.90;;;;;;5056176;28;20083;-64
2022/10/19 06:00:51;;;;;;;21.17;5.57;;;12.40;99.90;;;;;;5054904;28;20065;-64
2022/10/19 06:03:18;;;;;;;16.13;5.22;;;12.40;99.90;;;;;;5055534;28;20071;-64
2022/10/19 06:05:45;;;;;;;15.30;4.93;;;12.40;99.90;;;;;;5054785;28;20056;-65
2022/10/19 06:08:12;;;;;;;19.70;5.80;;;12.40;99.90;;;;;;5055267;28;20114;-65
2022/10/19 06:10:38;;;;;;;14.23;4.85;;;12.40;99.90;;;;;;5038699;28;20454;-65
2022/10/19 06:13:05;;;;;;;19.55;6.97;;;12.40;99.90;;;;;;5056410;28;20047;-65
2022/10/19 06:15:34;;;;;;;21.48;7.55;;;12.40;99.90;;;;;;5057143;28;20045;-65
2022/10/19 06:18:08;;;;;;;23.33;9.25;;;12.40;99.90;;;;;;5055903;28;20055;-65
2022/10/19 06:20:36;;;;;;;20.95;10.10;;;12.40;99.90;;;;;;5056874;28;20041;-65
2022/10/19 06:23:04;;;;;;;21.25;9.88;;;12.50;99.90;;;;;;5055661;28;20464;-64
2022/10/19 06:25:32;;;;;;;24.73;11.15;;;12.50;99.90;;;;;;5055711;28;20041;-63
2022/10/19 06:27:59;;;;;;;301.05;244.07;;;12.50;99.90;;;;;;5038304;28;20049;-63
2022/10/19 06:30:26;;;;;;;50.72;29.52;;;12.50;99.90;;;;;;5055556;28;20115;-64
2022/10/19 06:32:53;;;;;;;26.58;12.60;;;12.60;99.90;;;;;;5054817;28;20045;-62
2022/10/19 06:35:20;;;;;;;26.83;9.68;;;12.60;99.90;;;;;;5054565;28;20044;-63
2022/10/19 06:37:47;;;;;;;21.00;8.05;;;12.60;99.90;;;;;;5054493;28;20048;-63
2022/10/19 06:40:14;;;;;;;24.30;7.35;;;12.60;99.90;;;;;;5055780;28;20098;-63
2022/10/19 06:42:41;;;;;;;22.42;7.57;;;12.60;99.90;;;;;;5054033;28;20485;-62
2022/10/19 06:45:08;;;;;;;31.92;20.95;;;12.70;99.90;;;;;;5055488;28;20051;-64
2022/10/19 06:47:35;;;;;;;25.05;9.15;;;12.70;99.90;;;;;;5054581;28;20041;-63
2022/10/19 06:50:04;;;;;;;18.88;6.60;;;12.70;99.90;;;;;;5054987;28;20045;-63
2022/10/19 06:52:31;;;;;;;21.58;4.85;;;12.70;99.90;;;;;;5053840;28;20103;-63
2022/10/19 06:54:59;;;;;;;14.63;6.22;;;12.70;99.90;;;;;;5054846;28;20041;-64
2022/10/19 06:57:27;;;;;;;17.92;5.97;;;12.70;99.90;;;;;;5053532;28;20487;-64
2022/10/19 06:59:54;;;;;;;23.23;6.05;;;12.70;99.90;;;;;;5038228;28;20119;-64
2022/10/19 07:02:21;;;;;;;19.90;5.55;;;12.80;99.90;;;;;;5055156;28;20045;-64
2022/10/19 07:04:48;;;;;;;14.88;5.25;;;12.80;99.90;;;;;;5054618;28;20057;-63
2022/10/19 07:07:15;;;;;;;23.02;6.47;;;12.80;99.90;;;;;;5053072;28;20049;-64
2022/10/19 07:09:42;;;;;;;16.75;5.40;;;12.80;99.90;;;;;;5054716;28;20049;-64
2022/10/19 07:12:09;;;;;;;16.60;4.78;;;12.90;99.90;;;;;;5054506;28;20060;-64
2022/10/19 07:14:38;;;;;;;18.55;5.03;;;12.90;99.90;;;;;;5054691;28;20098;-64
2022/10/19 07:17:05;;;;;;;14.05;5.72;;;12.90;99.90;;;;;;5054304;28;20045;-64
2022/10/19 07:19:33;;;;;;;15.23;5.35;;;12.90;99.90;;;;;;5053194;28;20048;-64
2022/10/19 07:22:00;;;;;;;17.75;4.43;;;12.90;99.90;;;;;;5053264;28;20051;-64
2022/10/19 07:24:26;;;;;;;13.20;4.70;;;13.00;99.90;;;;;;5055123;28;20041;-64
2022/10/19 07:26:53;;;;;;;17.40;4.90;;;13.00;99.90;;;;;;5054012;28;20041;-64
2022/10/19 07:29:20;;;;;;;17.75;4.22;;;13.10;99.90;;;;;;5054246;28;20091;-64
2022/10/19 07:31:47;;;;;;;22.38;5.03;;;13.10;99.90;;;;;;5052974;28;20045;-64
2022/10/19 07:34:15;;;;;;;13.95;4.00;;;13.10;99.90;;;;;;5053984;28;20087;-65
2022/10/19 07:36:44;;;;;;;16.67;8.13;;;13.10;99.90;;;;;;5054381;28;20049;-63
2022/10/19 07:39:11;;;;;;;19.02;4.72;;;13.20;99.90;;;;;;5052652;28;20045;-64
2022/10/19 07:41:38;;;;;;;16.00;5.03;;;13.20;99.90;;;;;;5036461;28;20057;-64
2022/10/19 07:44:05;;;;;;;17.10;4.55;;;13.20;99.90;;;;;;5054581;28;20045;-64
2022/10/19 07:46:35;;;;;;;21.48;6.20;;;13.30;99.90;;;;;;5052660;28;20046;-64
2022/10/19 07:49:08;;;;;;;17.10;5.57;;;13.30;99.90;;;;;;5036763;28;20057;-64
2022/10/19 07:51:36;;;;;;;18.40;4.75;;;13.30;99.90;;;;;;5052656;28;20469;-64
2022/10/19 07:54:03;;;;;;;17.10;4.97;;;13.40;99.90;;;;;;5052613;28;20083;-64
2022/10/19 07:56:30;;;;;;;18.88;5.22;;;13.40;99.90;;;;;;5052356;28;20044;-64
2022/10/19 07:58:57;;;;;;;16.52;4.60;;;13.50;99.90;;;;;;5052475;28;20140;-64
2022/10/19 08:01:29;;;;;;;17.55;4.63;;;13.50;99.90;;;;;;5052672;28;20041;-64
2022/10/19 08:03:57;;;;;;;19.90;6.32;;;13.50;99.90;;;;;;5053998;28;20045;-64
2022/10/19 08:06:44;;;;;;;18.25;5.45;;;13.60;99.90;;;;;;5052229;28;20132;-64
2022/10/19 08:09:11;;;;;;;14.10;5.10;;;13.70;99.90;;;;;;5054364;28;20044;-64
2022/10/19 08:11:57;;;;;;;17.10;5.00;;;13.60;99.90;;;;;;5054067;28;20080;-64
2022/10/19 08:14:25;;;;;;;14.48;4.70;;;13.70;99.90;;;;;;5053846;28;20366;-64
2022/10/19 08:16:51;;;;;;;13.45;4.53;;;13.80;99.90;;;;;;5052308;28;20091;-64
2022/10/19 08:19:18;;;;;;;18.98;6.43;;;13.90;99.90;;;;;;5054148;28;20044;-64
2022/10/19 08:21:45;;;;;;;11.85;5.50;;;13.90;99.90;;;;;;5052370;28;20083;-64
2022/10/19 08:24:13;;;;;;;24.63;6.20;;;13.90;99.90;;;;;;5052122;28;20041;-64
2022/10/19 08:26:40;;;;;;;18.13;5.60;;;13.90;99.90;;;;;;5052414;28;20056;-64
2022/10/19 08:29:18;;;;;;;15.38;5.15;;;14.00;99.90;;;;;;5052048;28;20053;-64
2022/10/19 08:31:45;;;;;;;17.00;5.75;;;14.10;99.90;;;;;;5035289;28;20051;-64
2022/10/19 08:34:12;;;;;;;18.10;6.28;;;14.10;99.90;;;;;;5051971;28;20045;-64
2022/10/19 08:36:39;;;;;;;21.15;6.95;;;14.20;99.90;;;;;;5052337;28;20102;-64
2022/10/19 08:39:07;;;;;;;24.75;5.18;;;14.20;99.90;;;;;;5052152;28;20045;-64
2022/10/19 08:42:30;;;;;;;20.58;5.60;;;14.30;99.90;;;;;;5052067;28;20045;-64
2022/10/19 08:45:12;;;;;;;24.77;7.32;;;14.30;99.90;;;;;;5014541;28;20073;-64
2022/10/19 08:47:50;;;;;;;17.73;6.85;;;14.40;99.90;;;;;;5035780;28;20178;-64
2022/10/19 08:50:20;;;;;;;16.85;4.93;;;14.50;99.90;;;;;;5051631;28;20063;-64
2022/10/19 08:53:12;;;;;;;15.52;5.43;;;14.50;99.90;;;;;;5035425;28;20120;-64
2022/10/19 08:56:10;;;;;;;17.88;5.63;;;14.50;99.90;;;;;;5053205;28;20052;-64
2022/10/19 08:59:02;;;;;;;22.17;6.97;;;14.60;99.90;;;;;;5053472;28;20041;-64
2022/10/19 09:01:52;;;;;;;14.55;5.18;;;14.60;99.90;;;;;;5051766;28;20583;-64
2022/10/19 09:04:28;;;;;;;20.33;5.68;;;14.60;99.90;;;;;;5052595;28;20092;-64
2022/10/19 09:07:20;;;;;;;17.13;5.63;;;14.60;99.90;;;;;;5053319;28;20103;-64
2022/10/19 09:10:04;;;;;;;15.30;6.00;;;14.60;99.90;;;;;;5053391;28;20048;-64
2022/10/19 09:12:35;;;;;;;12.32;4.93;;;14.60;99.90;;;;;;5052153;28;20041;-64
2022/10/19 09:15:10;;;;;;;18.02;5.60;;;14.60;99.90;;;;;;5035274;28;20045;-64
2022/10/19 09:17:37;;;;;;;16.88;6.03;;;14.70;99.90;;;;;;5051429;28;20084;-64
2022/10/19 09:20:18;;;;;;;18.73;5.78;;;14.70;99.90;;;;;;5052330;28;20045;-64
2022/10/19 09:22:47;;;;;;;14.95;4.97;;;14.70;99.90;;;;;;5052345;28;20094;-64
2022/10/19 09:25:19;;;;;;;17.02;6.10;;;14.70;99.90;;;;;;5051465;28;20041;-64
2022/10/19 09:27:57;;;;;;;19.38;5.57;;;14.70;99.90;;;;;;5055871;28;20045;-64
2022/10/19 09:30:23;;;;;;;15.80;6.07;;;14.80;99.90;;;;;;5055845;28;20053;-63
2022/10/19 09:33:01;;;;;;;19.02;5.40;;;14.70;99.90;;;;;;5040087;28;20041;-61
2022/10/19 09:35:39;;;;;;;22.50;6.45;;;14.80;99.90;;;;;;5056203;28;20091;-64
2022/10/19 09:38:06;;;;;;;22.27;6.80;;;14.80;99.90;;;;;;5056271;28;20045;-64
2022/10/19 09:40:33;;;;;;;16.77;5.88;;;14.80;99.90;;;;;;5055503;28;20045;-64
2022/10/19 09:43:12;;;;;;;17.02;5.88;;;14.90;99.90;;;;;;5055182;28;20117;-65
2022/10/19 09:45:44;;;;;;;14.60;5.75;;;15.00;99.90;;;;;;5055606;28;20049;-54
2022/10/19 09:48:27;;;;;;;18.67;6.28;;;15.20;99.90;;;;;;5056451;28;20037;-63
2022/10/19 09:50:59;;;;;;;14.93;5.78;;;15.30;99.90;;;;;;5055404;28;20045;-62
2022/10/19 09:53:26;;;;;;;16.77;6.07;;;15.30;99.90;;;;;;5040686;28;20044;-63
2022/10/19 09:56:02;;;;;;;18.75;6.95;;;15.30;99.90;;;;;;5055356;28;20037;-64
2022/10/19 09:58:29;;;;;;;21.70;6.95;;;15.30;99.90;;;;;;5056797;28;20099;-64
2022/10/19 10:00:59;;;;;;;19.65;7.15;;;15.40;99.90;;;;;;5055294;28;20182;-64
2022/10/19 10:03:26;;;;;;;21.15;7.22;;;15.50;99.90;;;;;;5054695;28;20480;-64
2022/10/19 10:05:54;;;;;;;16.02;5.10;;;15.50;99.90;;;;;;5055733;28;20041;-64
2022/10/19 10:08:24;;;;;;;14.02;5.95;;;15.50;99.90;;;;;;5038481;28;20060;-64
2022/10/19 10:11:01;;;;;;;17.77;5.90;;;15.60;99.90;;;;;;5054973;28;20084;-64
2022/10/19 10:13:28;;;;;;;15.50;5.18;;;15.60;99.90;;;;;;5054485;28;20050;-64
2022/10/19 10:15:59;;;;;;;20.50;6.10;;;15.60;99.90;;;;;;5055887;28;20044;-64
2022/10/19 10:18:26;;;;;;;21.30;8.18;;;15.60;99.90;;;;;;5038378;28;20084;-65
2022/10/19 10:21:22;;;;;;;21.00;6.63;;;15.50;99.90;;;;;;5054938;28;20037;-65
2022/10/19 10:24:11;;;;;;;18.45;6.18;;;15.50;99.90;;;;;;5055081;28;20123;-65
2022/10/19 10:26:45;;;;;;;29.10;16.33;;;15.40;99.90;;;;;;5055501;28;20122;-68
2022/10/19 10:29:21;;;;;;;97.72;79.20;;;15.40;99.90;;;;;;5055524;28;20080;-67
2022/10/19 10:31:57;;;;;;;28.48;10.88;;;15.40;99.90;;;;;;5056013;28;20110;-68
2022/10/19 10:34:36;;;;;;;18.58;7.00;;;15.50;99.90;;;;;;5072011;28;20431;-64
2022/10/19 10:37:37;;;;;;;21.75;5.68;;;15.60;99.90;;;;;;5053066;28;20131;-65
2022/10/19 10:40:09;;;;;;;26.40;7.13;;;15.60;99.90;;;;;;5054685;28;20045;-65
2022/10/19 10:42:40;;;;;;;19.40;6.63;;;15.50;99.90;;;;;;5053955;28;20452;-65
2022/10/19 10:45:19;;;;;;;20.20;6.70;;;15.60;99.90;;;;;;5054693;28;20127;-65
2022/10/19 10:47:47;;;;;;;15.80;5.80;;;15.70;99.90;;;;;;5053998;28;20041;-65
2022/10/19 10:50:25;;;;;;;15.80;6.00;;;15.70;99.90;;;;;;5054462;28;20350;-65
2022/10/19 10:52:57;;;;;;;23.90;6.90;;;15.70;99.90;;;;;;5054125;28;20052;-65
2022/10/19 10:55:25;;;;;;;19.25;5.75;;;15.70;99.90;;;;;;5053825;28;20040;-65
2022/10/19 10:57:56;;;;;;;20.95;5.90;;;15.70;99.90;;;;;;5053660;28;20055;-65
2022/10/19 11:00:23;;;;;;;32.78;8.00;;;15.70;99.90;;;;;;5037822;28;20045;-65
2022/10/19 11:03:16;;;;;;;21.15;5.95;;;15.70;99.90;;;;;;5053474;28;20098;-65
2022/10/19 11:05:45;;;;;;;19.13;6.00;;;15.70;99.90;;;;;;5053763;28;20098;-65
2022/10/19 11:08:14;;;;;;;28.80;6.55;;;15.80;99.90;;;;;;5053307;28;20045;-65
2022/10/19 11:10:48;;;;;;;18.90;5.50;;;15.90;99.90;;;;;;5053793;28;20083;-65
2022/10/19 11:13:20;;;;;;;21.15;7.15;;;15.90;99.90;;;;;;5053353;28;20064;-62
2022/10/19 11:15:59;;;;;;;16.52;5.13;;;16.00;99.90;;;;;;5054226;28;20041;-65
2022/10/19 11:18:41;;;;;;;19.75;5.28;;;16.10;99.90;;;;;;5053362;28;20417;-65
2022/10/19 11:21:08;;;;;;;17.08;6.05;;;16.00;99.90;;;;;;5053672;28;20045;-65
2022/10/19 11:23:39;;;;;;;15.55;5.20;;;16.00;99.90;;;;;;5052985;28;20040;-64
2022/10/19 11:26:13;;;;;;;15.18;5.57;;;16.10;99.90;;;;;;5055013;28;20365;-63
2022/10/19 11:29:29;;;;;;;22.90;6.40;;;16.00;99.90;;;;;;5053532;28;20469;-64
2022/10/19 11:31:56;;;;;;;18.88;5.88;;;16.00;99.90;;;;;;5049645;28;20049;-64
2022/10/19 11:34:57;;;;;;;15.02;4.88;;;16.00;99.90;;;;;;5053027;28;20052;-63
2022/10/19 11:37:33;;;;;;;19.35;7.05;;;16.00;99.90;;;;;;5054162;28;20041;-65
2022/10/19 11:40:05;;;;;;;20.83;5.35;;;16.10;99.90;;;;;;5053008;28;20045;-64
2022/10/19 11:42:55;;;;;;;17.80;5.78;;;16.10;99.90;;;;;;5052928;28;20041;-64
2022/10/19 11:45:25;;;;;;;20.38;6.07;;;16.10;99.90;;;;;;5053459;28;20116;-64
2022/10/19 11:48:00;;;;;;;18.88;6.22;;;16.10;99.90;;;;;;5053492;28;20395;-64
2022/10/19 11:50:40;;;;;;;18.92;6.00;;;16.10;99.90;;;;;;5053923;28;20388;-64
2022/10/19 11:53:30;;;;;;;18.83;6.97;;;16.10;99.90;;;;;;5052979;28;20388;-62
2022/10/19 11:56:14;;;;;;;17.52;5.22;;;16.10;99.90;;;;;;5052549;28;20546;-62
2022/10/19 11:58:59;;;;;;;23.75;6.25;;;16.20;99.90;;;;;;5052370;28;20093;-62
2022/10/19 12:01:36;;;;;;;20.33;5.50;;;16.20;99.90;;;;;;5054600;28;20378;-62
2022/10/19 12:04:10;;;;;;;18.08;7.28;;;16.20;99.90;;;;;;5053329;28;20365;-62
2022/10/19 12:06:58;;;;;;;15.80;5.55;;;16.30;99.90;;;;;;5053178;28;20159;-62
2022/10/19 12:09:57;;;;;;;146.10;110.95;;;16.20;99.90;;;;;;5052558;28;20044;-63
2022/10/19 12:12:31;;;;;;;22.92;9.88;;;16.20;99.90;;;;;;5049004;28;20049;-64
2022/10/19 12:15:15;;;;;;;23.08;7.22;;;16.20;99.90;;;;;;5052270;28;20045;-63
2022/10/19 12:17:43;;;;;;;18.42;5.72;;;16.10;99.90;;;;;;5053000;28;20414;-64
2022/10/19 12:20:30;;;;;;;19.13;5.13;;;16.10;99.90;;;;;;5036065;28;20045;-64
2022/10/19 12:22:58;;;;;;;21.77;5.43;;;16.10;99.90;;;;;;5052150;28;20343;-64
2022/10/19 12:25:25;;;;;;;17.30;6.40;;;16.10;99.90;;;;;;5035720;28;20116;-64
2022/10/19 12:27:52;;;;;;;29.52;7.75;;;16.10;99.90;;;;;;5052242;28;20099;-64
2022/10/19 12:30:20;;;;;;;18.48;6.18;;;16.20;99.90;;;;;;5053620;28;20048;-64
2022/10/19 12:32:50;;;;;;;21.95;6.50;;;16.30;99.90;;;;;;5053060;28;20547;-64
2022/10/19 12:35:44;;;;;;;19.02;5.15;;;16.30;99.90;;;;;;5052226;28;20040;-64
2022/10/19 12:38:46;;;;;;;16.10;5.13;;;16.40;99.90;;;;;;5052182;28;20044;-64
2022/10/19 12:41:44;;;;;;;20.98;5.90;;;16.50;99.90;;;;;;5052438;28;20079;-64
2022/10/19 12:44:37;;;;;;;17.90;5.55;;;16.70;99.90;;;;;;5038751;28;20119;-66
2022/10/19 12:47:11;;;;;;;21.15;5.30;;;16.70;99.90;;;;;;5052149;28;20082;-65
2022/10/19 12:49:45;;;;;;;19.55;5.25;;;16.70;99.90;;;;;;5052343;28;20049;-66
2022/10/19 12:52:12;;;;;;;18.23;5.70;;;16.70;99.90;;;;;;5052203;28;20091;-65
2022/10/19 12:54:40;;;;;;;15.32;6.88;;;16.60;99.90;;;;;;5051770;28;20044;-65
2022/10/19 12:57:27;;;;;;;16.58;5.10;;;16.60;99.90;;;;;;5052583;28;20049;-66
2022/10/19 13:00:01;;;;;;;20.27;6.85;;;16.50;99.90;;;;;;5050989;28;20051;-66
2022/10/19 13:02:30;;;;;;;24.63;6.85;;;16.50;99.90;;;;;;5052190;28;20049;-66
2022/10/19 13:05:02;;;;;;;32.45;7.07;;;16.60;99.90;;;;;;5051476;28;20045;-65